Hlavní strana
METAR-TAF:

METAR-TAF

Letiště :

Gällivare, Švédsko

zeměpisná šířka: 67-09N, zeměpisná délka: 020-39E, výška: 359 m

Aktuální stav počasí

Zpráva byla vytvořena před 27 minutami, v 03:20 UTC
Západoseverozápadní vítr 5 kt
Teplota -21°C
Vlhkost vzduchu 84%
Tlak 990 hPa
Viditelnost 10 km a více
slabé sněžení

METAR: ESNG 160320Z AUTO 30005KT 9999 -SN NCD M21/M23 Q0990

Čas: 04:47 (03:47 UTC)

Předpověď počasí

Zpráva byla vytvořena před 17 minutami, v 03:30 UTC
Předpověď platná od 16 v 04 UTC do 16 v 12 UTC
Západoseverozápadní vítr 5 kt
Viditelnost: 8000 m
Oblačno až skoro zataženo ve výšce 1500 ft
slabé sněžení
Dočasný
od 16 v 04 UTC do 16 v 12 UTC
Viditelnost: 2500 m
Oblačno až skoro zataženo ve výšce 700 ft

TAF: ESNG 160330Z 1604/1612 29005KT 8000 -SN BKN015 TEMPO 1604/1612 2500 BKN007

Stav a předpovědi počasí z více než 4 000 letišť (zprávy METAR a TAF).

Červené a žluté tečky na mapě představují dostupné meteorologické stanice.

Když kurzor umístíte na tečku, zobrazí se název stanice.

Pak kliknutím zobrazíte stav a předpověď počasí.

Chcete-li změnit mapu, kliknutím na zelené tlačítko se znaménkem +mapu přiblížíte, kliknutím na zelené tlačítko se znaménkem – mapu oddálíte a kliknutím na zelené šipky přejdete na sousední mapy.


METAR-TAF: